Startpagina
METAR-TAF:

METAR-TAF

Vliegvelden :

Resistencia, Argentinië

breedte: 27-27S, lengte: 059-03W, hoogte: 53 m

Actueel weer

Dit bericht is 33 minuten geleden gemaakt, om 14:00 UTC
Wind 10 kt uit het zuidzuidoosten
Temperatuur 26°C
Vochtigheid 48%
Druk 1015 hPa
Zicht 10 km of meer
geen wolken onder 1500 m en geen cumulonimbus

METAR: SARE 261400Z 16010KT CAVOK 26/14 Q1015

Tijdstip: 11:33 (14:33 UTC)

Verwachting

Dit bericht is 3 uur en het 33 minuten geleden gemaakt, om 11:00 UTC
Verwachting geldig van 26 om 12 UTC tot 27 om 12 UTC
Wind 5 kt uit het zuidzuidwesten
Zicht 10 km of meer
geen wolken onder 1500 m en geen cumulonimbus

TAF: SARE 261100Z 2612/2712 20005KT CAVOK TX28/2618Z TN14/2709Z

Waarnemingen en weersverwachtingen van meer dan 4000 vliegvelden (METAR en TAF).

De beschikbare stations zijn de gele en rode punten op de kaart.

Ga met uw muis naar het station om de naam te zien.

Klik dan om waarnemingen en weersverwachtingen te zien.

kaart wijzigen: klik op de groene knoppen met een zwart kruis om in te zoomen, op de groene knop met een streepje om uit te zoomen of op de groene pijlen voor aangrenzende kaarten.


METAR-TAF: